Skip Navigation Links Skip Navigation Links

Current Weather

Santacruz Apt, Mumbai (Bombay), India

For information only: do not use for flight planning or navigation.
Latest weather
Observation time Saturday, September 22, 2018 9:00 PM IST
Local time Saturday, September 22, 2018 9:27 PM IST
Flight conditions Instrument Meteorological Conditions
Winds
Wind direction Southwest (230°)
Wind speed 9 mph
Visibility 1.6 mi.
Present weather haze
Sky condition
Ceiling 9,000 ft. broken clouds
Cloud layer few clouds 1,800 ft.
Cloud layer scattered clouds 2,500 ft.
Cloud layer broken clouds 9,000 ft.
Temperature 82°F
Dewpoint 77°F
Altimeter 29.80 in.Hg
Derived measurements
Relative humidity 84%
Heat index 91°F
Density altitude 2108 ft.
Remarks
No significant changes expected in the next two hours.
METAR VABB 221530Z 23008KT 2500 HZ FEW018 SCT025 BKN090 28/25 Q1009 NOSIG

Settings

Location code

InnerDrive.Weather 4.0.6770.0 Release CLR 4.0.30319.42000
Copyright ©2018 Inner Drive Technology. All rights reserved. Portions Copyright ©1986-2018 David Braverman.

Find weather

Site navigation


Skip Navigation Links

Place info

Page info

PayPal - The safer, easier way to pay online!

Return home.

Copyright ©2018 Inner Drive Technology. Purveyors of fine, hand-crafted computer software. Page printed 2018-09-22T15:57:59 UTC.